sensor_id;sensor_type;location;lat;lon;timestamp;P1;durP1;ratioP1;P2;durP2;ratioP2
11962;SDS011;62678;52.130;5.584;2022-11-23T00:00:30;22.80;;;15.88;;
11962;SDS011;62678;52.130;5.584;2022-11-23T00:02:57;29.75;;;17.80;;
11962;SDS011;62678;52.130;5.584;2022-11-23T00:05:25;30.08;;;18.30;;
11962;SDS011;62678;52.130;5.584;2022-11-23T00:07:53;26.40;;;18.73;;
11962;SDS011;62678;52.130;5.584;2022-11-23T00:10:20;30.33;;;19.30;;
11962;SDS011;62678;52.130;5.584;2022-11-23T00:12:47;25.42;;;17.50;;
11962;SDS011;62678;52.130;5.584;2022-11-23T00:15:15;33.00;;;19.90;;
11962;SDS011;62678;52.130;5.584;2022-11-23T00:17:42;28.73;;;19.88;;
11962;SDS011;62678;52.130;5.584;2022-11-23T00:20:11;31.95;;;20.08;;
11962;SDS011;62678;52.130;5.584;2022-11-23T00:22:38;27.33;;;19.83;;
11962;SDS011;62678;52.130;5.584;2022-11-23T00:25:05;31.63;;;21.05;;
11962;SDS011;62678;52.130;5.584;2022-11-23T00:27:32;32.65;;;20.63;;
11962;SDS011;62678;52.130;5.584;2022-11-23T00:29:59;35.33;;;23.85;;
11962;SDS011;62678;52.130;5.584;2022-11-23T00:32:28;31.25;;;22.70;;
11962;SDS011;62678;52.130;5.584;2022-11-23T00:34:55;37.17;;;24.20;;
11962;SDS011;62678;52.130;5.584;2022-11-23T00:37:22;37.35;;;24.27;;
11962;SDS011;62678;52.130;5.584;2022-11-23T00:39:49;40.15;;;23.35;;
11962;SDS011;62678;52.130;5.584;2022-11-23T00:42:15;33.15;;;23.05;;
11962;SDS011;62678;52.130;5.584;2022-11-23T00:44:42;35.47;;;23.23;;
11962;SDS011;62678;52.130;5.584;2022-11-23T00:47:09;35.67;;;22.67;;
11962;SDS011;62678;52.130;5.584;2022-11-23T00:49:37;36.38;;;23.10;;
11962;SDS011;62678;52.130;5.584;2022-11-23T00:52:04;38.28;;;23.65;;
11962;SDS011;62678;52.130;5.584;2022-11-23T00:54:30;34.95;;;23.27;;
11962;SDS011;62678;52.130;5.584;2022-11-23T00:56:57;36.72;;;24.58;;
11962;SDS011;62678;52.130;5.584;2022-11-23T00:59:24;35.83;;;23.42;;
11962;SDS011;62678;52.130;5.584;2022-11-23T01:01:50;38.63;;;24.30;;
11962;SDS011;62678;52.130;5.584;2022-11-23T01:04:17;36.25;;;24.20;;
11962;SDS011;62678;52.130;5.584;2022-11-23T01:06:45;34.00;;;22.75;;
11962;SDS011;62678;52.130;5.584;2022-11-23T01:09:13;33.80;;;23.27;;
11962;SDS011;62678;52.130;5.584;2022-11-23T01:11:42;39.28;;;23.98;;
11962;SDS011;62678;52.130;5.584;2022-11-23T01:14:09;34.40;;;23.08;;
11962;SDS011;62678;52.130;5.584;2022-11-23T01:16:37;36.78;;;24.45;;
11962;SDS011;62678;52.130;5.584;2022-11-23T01:19:06;33.63;;;23.27;;
11962;SDS011;62678;52.130;5.584;2022-11-23T01:21:35;38.90;;;23.48;;
11962;SDS011;62678;52.130;5.584;2022-11-23T01:24:04;37.03;;;23.15;;
11962;SDS011;62678;52.130;5.584;2022-11-23T01:26:32;32.85;;;23.80;;
11962;SDS011;62678;52.130;5.584;2022-11-23T01:28:59;35.58;;;22.60;;
11962;SDS011;62678;52.130;5.584;2022-11-23T01:31:26;31.00;;;22.70;;
11962;SDS011;62678;52.130;5.584;2022-11-23T01:33:53;34.78;;;25.08;;
11962;SDS011;62678;52.130;5.584;2022-11-23T01:36:21;41.05;;;22.90;;
11962;SDS011;62678;52.130;5.584;2022-11-23T01:38:50;39.28;;;22.63;;
11962;SDS011;62678;52.130;5.584;2022-11-23T01:41:19;34.88;;;23.15;;
11962;SDS011;62678;52.130;5.584;2022-11-23T01:43:48;39.38;;;24.02;;
11962;SDS011;62678;52.130;5.584;2022-11-23T01:46:16;31.92;;;23.13;;
11962;SDS011;62678;52.130;5.584;2022-11-23T01:48:43;39.53;;;22.88;;
11962;SDS011;62678;52.130;5.584;2022-11-23T01:51:13;37.97;;;22.92;;
11962;SDS011;62678;52.130;5.584;2022-11-23T01:53:42;32.40;;;21.00;;
11962;SDS011;62678;52.130;5.584;2022-11-23T01:56:13;36.38;;;21.98;;
11962;SDS011;62678;52.130;5.584;2022-11-23T01:58:44;34.40;;;21.67;;
11962;SDS011;62678;52.130;5.584;2022-11-23T02:01:13;30.67;;;20.63;;
11962;SDS011;62678;52.130;5.584;2022-11-23T02:03:40;33.97;;;21.17;;
11962;SDS011;62678;52.130;5.584;2022-11-23T02:06:09;31.15;;;20.75;;
11962;SDS011;62678;52.130;5.584;2022-11-23T02:08:39;34.45;;;20.83;;
11962;SDS011;62678;52.130;5.584;2022-11-23T02:11:06;34.15;;;20.83;;
11962;SDS011;62678;52.130;5.584;2022-11-23T02:13:34;32.10;;;21.02;;
11962;SDS011;62678;52.130;5.584;2022-11-23T02:16:02;32.58;;;18.25;;
11962;SDS011;62678;52.130;5.584;2022-11-23T02:18:30;28.90;;;18.50;;
11962;SDS011;62678;52.130;5.584;2022-11-23T02:20:59;29.00;;;18.48;;
11962;SDS011;62678;52.130;5.584;2022-11-23T02:23:30;33.10;;;18.77;;
11962;SDS011;62678;52.130;5.584;2022-11-23T02:26:02;26.92;;;17.45;;
11962;SDS011;62678;52.130;5.584;2022-11-23T02:28:34;32.35;;;17.05;;
11962;SDS011;62678;52.130;5.584;2022-11-23T02:31:04;33.60;;;16.65;;
11962;SDS011;62678;52.130;5.584;2022-11-23T02:33:30;31.38;;;16.35;;
11962;SDS011;62678;52.130;5.584;2022-11-23T02:35:58;28.15;;;15.95;;
11962;SDS011;62678;52.130;5.584;2022-11-23T02:38:27;28.83;;;15.05;;
11962;SDS011;62678;52.130;5.584;2022-11-23T02:40:56;25.35;;;14.50;;
11962;SDS011;62678;52.130;5.584;2022-11-23T02:43:25;27.77;;;16.00;;
11962;SDS011;62678;52.130;5.584;2022-11-23T02:45:53;29.30;;;16.10;;
11962;SDS011;62678;52.130;5.584;2022-11-23T02:48:21;21.83;;;15.05;;
11962;SDS011;62678;52.130;5.584;2022-11-23T02:50:48;24.70;;;14.95;;
11962;SDS011;62678;52.130;5.584;2022-11-23T02:53:15;27.10;;;14.90;;
11962;SDS011;62678;52.130;5.584;2022-11-23T02:55:42;25.77;;;13.82;;
11962;SDS011;62678;52.130;5.584;2022-11-23T02:58:09;28.95;;;14.98;;
11962;SDS011;62678;52.130;5.584;2022-11-23T03:00:37;22.85;;;13.25;;
11962;SDS011;62678;52.130;5.584;2022-11-23T03:03:04;20.48;;;13.43;;
11962;SDS011;62678;52.130;5.584;2022-11-23T03:05:31;21.73;;;12.68;;
11962;SDS011;62678;52.130;5.584;2022-11-23T03:07:58;20.88;;;12.00;;
11962;SDS011;62678;52.130;5.584;2022-11-23T03:10:24;21.30;;;12.20;;
11962;SDS011;62678;52.130;5.584;2022-11-23T03:12:52;19.63;;;12.65;;
11962;SDS011;62678;52.130;5.584;2022-11-23T03:15:20;17.45;;;11.15;;
11962;SDS011;62678;52.130;5.584;2022-11-23T03:17:48;23.17;;;11.38;;
11962;SDS011;62678;52.130;5.584;2022-11-23T03:20:15;18.13;;;11.27;;
11962;SDS011;62678;52.130;5.584;2022-11-23T03:22:42;21.63;;;10.93;;
11962;SDS011;62678;52.130;5.584;2022-11-23T03:25:09;22.10;;;11.20;;
11962;SDS011;62678;52.130;5.584;2022-11-23T03:27:36;21.17;;;11.30;;
11962;SDS011;62678;52.130;5.584;2022-11-23T03:30:04;20.73;;;11.18;;
11962;SDS011;62678;52.130;5.584;2022-11-23T03:32:32;20.33;;;10.57;;
11962;SDS011;62678;52.130;5.584;2022-11-23T03:35:00;17.88;;;11.05;;
11962;SDS011;62678;52.130;5.584;2022-11-23T03:37:27;20.88;;;9.68;;
11962;SDS011;62678;52.130;5.584;2022-11-23T03:39:54;20.35;;;9.50;;
11962;SDS011;62678;52.130;5.584;2022-11-23T03:42:21;18.33;;;9.48;;
11962;SDS011;62678;52.130;5.584;2022-11-23T03:44:47;17.08;;;8.85;;
11962;SDS011;62678;52.130;5.584;2022-11-23T03:47:14;13.52;;;8.52;;
11962;SDS011;62678;52.130;5.584;2022-11-23T03:49:41;17.40;;;8.20;;
11962;SDS011;62678;52.130;5.584;2022-11-23T03:52:09;22.13;;;8.18;;
11962;SDS011;62678;52.130;5.584;2022-11-23T03:54:35;13.65;;;8.18;;
11962;SDS011;62678;52.130;5.584;2022-11-23T03:57:02;16.45;;;7.35;;
11962;SDS011;62678;52.130;5.584;2022-11-23T03:59:29;16.20;;;7.47;;
11962;SDS011;62678;52.130;5.584;2022-11-23T04:01:56;16.80;;;7.45;;
11962;SDS011;62678;52.130;5.584;2022-11-23T04:04:22;14.40;;;8.23;;
11962;SDS011;62678;52.130;5.584;2022-11-23T04:06:49;16.10;;;10.43;;
11962;SDS011;62678;52.130;5.584;2022-11-23T04:09:17;17.58;;;8.52;;
11962;SDS011;62678;52.130;5.584;2022-11-23T04:11:44;15.38;;;7.82;;
11962;SDS011;62678;52.130;5.584;2022-11-23T04:14:11;14.85;;;8.25;;
11962;SDS011;62678;52.130;5.584;2022-11-23T04:16:37;18.35;;;8.82;;
11962;SDS011;62678;52.130;5.584;2022-11-23T04:19:04;17.85;;;9.00;;
11962;SDS011;62678;52.130;5.584;2022-11-23T04:21:31;17.23;;;9.32;;
11962;SDS011;62678;52.130;5.584;2022-11-23T04:23:57;18.33;;;8.60;;
11962;SDS011;62678;52.130;5.584;2022-11-23T04:26:26;20.55;;;9.43;;
11962;SDS011;62678;52.130;5.584;2022-11-23T04:28:52;16.45;;;9.02;;
11962;SDS011;62678;52.130;5.584;2022-11-23T04:31:19;19.88;;;9.20;;
11962;SDS011;62678;52.130;5.584;2022-11-23T04:33:46;20.35;;;9.35;;
11962;SDS011;62678;52.130;5.584;2022-11-23T04:36:12;19.67;;;9.40;;
11962;SDS011;62678;52.130;5.584;2022-11-23T04:38:39;26.48;;;9.60;;
11962;SDS011;62678;52.130;5.584;2022-11-23T04:41:06;18.92;;;9.88;;
11962;SDS011;62678;52.130;5.584;2022-11-23T04:43:34;26.20;;;10.10;;
11962;SDS011;62678;52.130;5.584;2022-11-23T04:46:01;19.55;;;10.02;;
11962;SDS011;62678;52.130;5.584;2022-11-23T04:48:28;24.23;;;10.27;;
11962;SDS011;62678;52.130;5.584;2022-11-23T04:50:55;18.02;;;9.52;;
11962;SDS011;62678;52.130;5.584;2022-11-23T04:53:22;22.08;;;10.52;;
11962;SDS011;62678;52.130;5.584;2022-11-23T04:55:49;16.58;;;9.15;;
11962;SDS011;62678;52.130;5.584;2022-11-23T04:58:16;23.38;;;9.38;;
11962;SDS011;62678;52.130;5.584;2022-11-23T05:00:44;23.33;;;9.93;;
11962;SDS011;62678;52.130;5.584;2022-11-23T05:03:11;25.60;;;10.25;;
11962;SDS011;62678;52.130;5.584;2022-11-23T05:05:38;23.25;;;9.35;;
11962;SDS011;62678;52.130;5.584;2022-11-23T05:08:05;20.30;;;9.18;;
11962;SDS011;62678;52.130;5.584;2022-11-23T05:10:32;21.05;;;9.35;;
11962;SDS011;62678;52.130;5.584;2022-11-23T05:12:59;23.80;;;10.43;;
11962;SDS011;62678;52.130;5.584;2022-11-23T05:15:26;24.02;;;10.38;;
11962;SDS011;62678;52.130;5.584;2022-11-23T05:17:57;23.90;;;9.63;;
11962;SDS011;62678;52.130;5.584;2022-11-23T05:20:26;24.08;;;9.13;;
11962;SDS011;62678;52.130;5.584;2022-11-23T05:22:53;22.25;;;8.95;;
11962;SDS011;62678;52.130;5.584;2022-11-23T05:25:19;22.52;;;9.77;;
11962;SDS011;62678;52.130;5.584;2022-11-23T05:27:46;28.75;;;11.57;;
11962;SDS011;62678;52.130;5.584;2022-11-23T05:30:13;23.75;;;10.65;;
11962;SDS011;62678;52.130;5.584;2022-11-23T05:32:40;24.58;;;9.68;;
11962;SDS011;62678;52.130;5.584;2022-11-23T05:35:08;24.33;;;8.57;;
11962;SDS011;62678;52.130;5.584;2022-11-23T05:37:36;24.67;;;9.13;;
11962;SDS011;62678;52.130;5.584;2022-11-23T05:40:04;20.25;;;9.05;;
11962;SDS011;62678;52.130;5.584;2022-11-23T05:42:32;19.75;;;6.95;;
11962;SDS011;62678;52.130;5.584;2022-11-23T05:44:58;27.92;;;10.32;;
11962;SDS011;62678;52.130;5.584;2022-11-23T05:47:25;20.10;;;8.23;;
11962;SDS011;62678;52.130;5.584;2022-11-23T05:49:52;17.77;;;7.07;;
11962;SDS011;62678;52.130;5.584;2022-11-23T05:52:20;21.58;;;6.63;;
11962;SDS011;62678;52.130;5.584;2022-11-23T05:54:49;20.50;;;7.25;;
11962;SDS011;62678;52.130;5.584;2022-11-23T05:57:16;20.92;;;6.20;;
11962;SDS011;62678;52.130;5.584;2022-11-23T05:59:43;15.90;;;6.07;;
11962;SDS011;62678;52.130;5.584;2022-11-23T06:02:10;18.73;;;6.55;;
11962;SDS011;62678;52.130;5.584;2022-11-23T06:04:37;22.88;;;6.57;;
11962;SDS011;62678;52.130;5.584;2022-11-23T06:07:04;21.02;;;5.95;;
11962;SDS011;62678;52.130;5.584;2022-11-23T06:09:32;18.08;;;6.50;;
11962;SDS011;62678;52.130;5.584;2022-11-23T06:11:58;17.10;;;6.30;;
11962;SDS011;62678;52.130;5.584;2022-11-23T06:14:25;17.80;;;6.15;;
11962;SDS011;62678;52.130;5.584;2022-11-23T06:16:52;18.02;;;6.65;;
11962;SDS011;62678;52.130;5.584;2022-11-23T06:19:18;20.23;;;7.18;;
11962;SDS011;62678;52.130;5.584;2022-11-23T06:21:46;16.75;;;8.00;;
11962;SDS011;62678;52.130;5.584;2022-11-23T06:24:12;24.95;;;6.70;;
11962;SDS011;62678;52.130;5.584;2022-11-23T06:26:41;18.23;;;6.30;;
11962;SDS011;62678;52.130;5.584;2022-11-23T06:29:07;20.95;;;6.45;;
11962;SDS011;62678;52.130;5.584;2022-11-23T06:31:34;14.27;;;5.75;;
11962;SDS011;62678;52.130;5.584;2022-11-23T06:34:01;17.25;;;6.00;;
11962;SDS011;62678;52.130;5.584;2022-11-23T06:36:28;15.05;;;5.72;;
11962;SDS011;62678;52.130;5.584;2022-11-23T06:38:55;17.23;;;5.80;;
11962;SDS011;62678;52.130;5.584;2022-11-23T06:41:21;15.65;;;5.50;;
11962;SDS011;62678;52.130;5.584;2022-11-23T06:43:50;21.10;;;5.90;;
11962;SDS011;62678;52.130;5.584;2022-11-23T06:46:17;15.80;;;4.82;;
11962;SDS011;62678;52.130;5.584;2022-11-23T06:48:44;16.05;;;5.32;;
11962;SDS011;62678;52.130;5.584;2022-11-23T06:51:12;14.77;;;5.30;;
11962;SDS011;62678;52.130;5.584;2022-11-23T06:53:40;19.90;;;4.93;;
11962;SDS011;62678;52.130;5.584;2022-11-23T06:56:07;19.13;;;4.00;;
11962;SDS011;62678;52.130;5.584;2022-11-23T06:58:34;19.50;;;4.32;;
11962;SDS011;62678;52.130;5.584;2022-11-23T07:01:04;12.73;;;4.00;;
11962;SDS011;62678;52.130;5.584;2022-11-23T07:03:32;19.20;;;4.35;;
11962;SDS011;62678;52.130;5.584;2022-11-23T07:06:02;15.40;;;3.65;;
11962;SDS011;62678;52.130;5.584;2022-11-23T07:08:30;14.57;;;4.07;;
11962;SDS011;62678;52.130;5.584;2022-11-23T07:10:58;21.65;;;4.03;;
11962;SDS011;62678;52.130;5.584;2022-11-23T07:13:25;21.63;;;4.20;;
11962;SDS011;62678;52.130;5.584;2022-11-23T07:15:52;14.60;;;3.25;;
11962;SDS011;62678;52.130;5.584;2022-11-23T07:18:20;14.85;;;3.25;;
11962;SDS011;62678;52.130;5.584;2022-11-23T07:20:47;16.00;;;3.90;;
11962;SDS011;62678;52.130;5.584;2022-11-23T07:23:14;22.08;;;4.05;;
11962;SDS011;62678;52.130;5.584;2022-11-23T07:25:41;19.17;;;3.33;;
11962;SDS011;62678;52.130;5.584;2022-11-23T07:28:09;20.05;;;3.53;;
11962;SDS011;62678;52.130;5.584;2022-11-23T07:30:37;15.77;;;3.83;;
11962;SDS011;62678;52.130;5.584;2022-11-23T07:33:05;21.30;;;3.95;;
11962;SDS011;62678;52.130;5.584;2022-11-23T07:35:34;17.35;;;3.33;;
11962;SDS011;62678;52.130;5.584;2022-11-23T07:38:03;19.60;;;3.85;;
11962;SDS011;62678;52.130;5.584;2022-11-23T07:40:32;20.30;;;3.92;;
11962;SDS011;62678;52.130;5.584;2022-11-23T07:42:59;19.05;;;3.00;;
11962;SDS011;62678;52.130;5.584;2022-11-23T07:45:26;15.63;;;3.17;;
11962;SDS011;62678;52.130;5.584;2022-11-23T07:47:56;14.98;;;3.13;;
11962;SDS011;62678;52.130;5.584;2022-11-23T07:50:24;19.35;;;3.30;;
11962;SDS011;62678;52.130;5.584;2022-11-23T07:52:53;16.13;;;3.33;;
11962;SDS011;62678;52.130;5.584;2022-11-23T07:55:20;19.58;;;3.83;;
11962;SDS011;62678;52.130;5.584;2022-11-23T07:57:50;21.88;;;3.60;;
11962;SDS011;62678;52.130;5.584;2022-11-23T08:00:18;14.57;;;2.97;;
11962;SDS011;62678;52.130;5.584;2022-11-23T08:02:45;19.98;;;3.63;;
11962;SDS011;62678;52.130;5.584;2022-11-23T08:05:12;18.77;;;3.47;;
11962;SDS011;62678;52.130;5.584;2022-11-23T08:07:39;18.60;;;3.92;;
11962;SDS011;62678;52.130;5.584;2022-11-23T08:10:07;19.55;;;4.15;;
11962;SDS011;62678;52.130;5.584;2022-11-23T08:12:35;22.02;;;3.75;;
11962;SDS011;62678;52.130;5.584;2022-11-23T08:15:01;14.63;;;3.00;;
11962;SDS011;62678;52.130;5.584;2022-11-23T08:17:28;17.45;;;3.22;;
11962;SDS011;62678;52.130;5.584;2022-11-23T08:19:55;19.55;;;3.47;;
11962;SDS011;62678;52.130;5.584;2022-11-23T08:22:22;20.23;;;3.70;;
11962;SDS011;62678;52.130;5.584;2022-11-23T08:24:50;20.90;;;3.63;;
11962;SDS011;62678;52.130;5.584;2022-11-23T08:27:18;16.85;;;3.20;;
11962;SDS011;62678;52.130;5.584;2022-11-23T08:29:45;20.80;;;3.95;;
11962;SDS011;62678;52.130;5.584;2022-11-23T08:32:12;18.70;;;3.88;;
11962;SDS011;62678;52.130;5.584;2022-11-23T08:34:39;20.77;;;3.88;;
11962;SDS011;62678;52.130;5.584;2022-11-23T08:37:07;23.27;;;3.90;;
11962;SDS011;62678;52.130;5.584;2022-11-23T08:39:34;19.20;;;4.03;;
11962;SDS011;62678;52.130;5.584;2022-11-23T08:42:01;27.00;;;3.63;;
11962;SDS011;62678;52.130;5.584;2022-11-23T08:44:29;19.65;;;3.40;;
11962;SDS011;62678;52.130;5.584;2022-11-23T08:46:56;15.32;;;3.15;;
11962;SDS011;62678;52.130;5.584;2022-11-23T08:49:23;20.98;;;3.60;;
11962;SDS011;62678;52.130;5.584;2022-11-23T08:51:50;20.85;;;3.92;;
11962;SDS011;62678;52.130;5.584;2022-11-23T08:54:16;19.70;;;3.65;;
11962;SDS011;62678;52.130;5.584;2022-11-23T08:56:43;15.00;;;3.05;;
11962;SDS011;62678;52.130;5.584;2022-11-23T08:59:10;22.20;;;4.10;;
11962;SDS011;62678;52.130;5.584;2022-11-23T09:01:38;20.50;;;3.80;;
11962;SDS011;62678;52.130;5.584;2022-11-23T09:04:05;23.15;;;3.88;;
11962;SDS011;62678;52.130;5.584;2022-11-23T09:06:32;19.00;;;4.03;;
11962;SDS011;62678;52.130;5.584;2022-11-23T09:08:58;17.13;;;3.60;;
11962;SDS011;62678;52.130;5.584;2022-11-23T09:11:25;26.85;;;4.25;;
11962;SDS011;62678;52.130;5.584;2022-11-23T09:13:55;14.30;;;2.92;;
11962;SDS011;62678;52.130;5.584;2022-11-23T09:16:27;19.63;;;3.83;;
11962;SDS011;62678;52.130;5.584;2022-11-23T09:18:56;16.02;;;3.30;;
11962;SDS011;62678;52.130;5.584;2022-11-23T09:21:23;16.67;;;3.45;;
11962;SDS011;62678;52.130;5.584;2022-11-23T09:23:53;15.05;;;3.60;;
11962;SDS011;62678;52.130;5.584;2022-11-23T09:26:20;14.05;;;2.92;;
11962;SDS011;62678;52.130;5.584;2022-11-23T09:28:47;18.17;;;3.55;;
11962;SDS011;62678;52.130;5.584;2022-11-23T09:31:13;20.02;;;3.70;;
11962;SDS011;62678;52.130;5.584;2022-11-23T09:33:40;16.50;;;2.97;;
11962;SDS011;62678;52.130;5.584;2022-11-23T09:36:08;16.42;;;3.40;;
11962;SDS011;62678;52.130;5.584;2022-11-23T09:38:35;17.35;;;2.95;;
11962;SDS011;62678;52.130;5.584;2022-11-23T09:41:05;21.88;;;3.53;;
11962;SDS011;62678;52.130;5.584;2022-11-23T09:43:47;12.70;;;2.90;;
11962;SDS011;62678;52.130;5.584;2022-11-23T09:46:24;13.88;;;2.65;;
11962;SDS011;62678;52.130;5.584;2022-11-23T09:49:08;15.05;;;2.72;;
11962;SDS011;62678;52.130;5.584;2022-11-23T09:51:40;17.63;;;2.97;;
11962;SDS011;62678;52.130;5.584;2022-11-23T09:54:16;19.25;;;3.03;;
11962;SDS011;62678;52.130;5.584;2022-11-23T09:56:49;15.98;;;2.88;;
11962;SDS011;62678;52.130;5.584;2022-11-23T09:59:21;17.33;;;3.78;;
11962;SDS011;62678;52.130;5.584;2022-11-23T10:01:56;16.35;;;3.10;;
11962;SDS011;62678;52.130;5.584;2022-11-23T10:04:25;16.58;;;3.25;;
11962;SDS011;62678;52.130;5.584;2022-11-23T10:07:02;16.73;;;2.50;;
11962;SDS011;62678;52.130;5.584;2022-11-23T10:09:37;20.25;;;3.70;;
11962;SDS011;62678;52.130;5.584;2022-11-23T10:12:20;13.40;;;3.25;;
11962;SDS011;62678;52.130;5.584;2022-11-23T10:15:02;18.02;;;3.30;;
11962;SDS011;62678;52.130;5.584;2022-11-23T10:17:48;14.40;;;2.83;;
11962;SDS011;62678;52.130;5.584;2022-11-23T10:20:32;15.38;;;3.10;;
11962;SDS011;62678;52.130;5.584;2022-11-23T10:23:12;17.73;;;2.67;;
11962;SDS011;62678;52.130;5.584;2022-11-23T10:25:45;14.73;;;3.20;;
11962;SDS011;62678;52.130;5.584;2022-11-23T10:28:15;15.95;;;3.03;;
11962;SDS011;62678;52.130;5.584;2022-11-23T10:30:44;15.15;;;3.05;;
11962;SDS011;62678;52.130;5.584;2022-11-23T10:33:16;14.85;;;2.90;;
11962;SDS011;62678;52.130;5.584;2022-11-23T10:35:51;15.32;;;3.05;;
11962;SDS011;62678;52.130;5.584;2022-11-23T10:38:20;15.05;;;2.88;;
11962;SDS011;62678;52.130;5.584;2022-11-23T10:40:52;14.88;;;3.05;;
11962;SDS011;62678;52.130;5.584;2022-11-23T10:43:28;14.25;;;2.75;;
11962;SDS011;62678;52.130;5.584;2022-11-23T10:48:52;12.25;;;2.70;;
11962;SDS011;62678;52.130;5.584;2022-11-23T10:51:21;15.40;;;3.13;;
11962;SDS011;62678;52.130;5.584;2022-11-23T10:53:55;14.55;;;2.97;;
11962;SDS011;62678;52.130;5.584;2022-11-23T10:56:23;14.40;;;3.60;;
11962;SDS011;62678;52.130;5.584;2022-11-23T10:58:50;20.23;;;3.50;;
11962;SDS011;62678;52.130;5.584;2022-11-23T11:01:18;16.75;;;2.90;;
11962;SDS011;62678;52.130;5.584;2022-11-23T11:03:48;20.65;;;3.17;;
11962;SDS011;62678;52.130;5.584;2022-11-23T11:06:23;13.90;;;2.95;;
11962;SDS011;62678;52.130;5.584;2022-11-23T11:08:51;13.82;;;2.80;;
11962;SDS011;62678;52.130;5.584;2022-11-23T11:11:23;11.48;;;2.58;;
11962;SDS011;62678;52.130;5.584;2022-11-23T11:13:51;9.35;;;2.38;;
11962;SDS011;62678;52.130;5.584;2022-11-23T11:16:27;15.25;;;2.85;;
11962;SDS011;62678;52.130;5.584;2022-11-23T11:18:56;10.70;;;3.03;;
11962;SDS011;62678;52.130;5.584;2022-11-23T11:21:25;14.63;;;2.80;;
11962;SDS011;62678;52.130;5.584;2022-11-23T11:23:59;16.50;;;2.80;;
11962;SDS011;62678;52.130;5.584;2022-11-23T11:26:28;12.95;;;2.35;;
11962;SDS011;62678;52.130;5.584;2022-11-23T11:28:56;15.25;;;2.40;;
11962;SDS011;62678;52.130;5.584;2022-11-23T11:31:29;14.35;;;2.38;;
11962;SDS011;62678;52.130;5.584;2022-11-23T11:34:13;17.15;;;2.45;;
11962;SDS011;62678;52.130;5.584;2022-11-23T11:36:47;15.65;;;2.78;;
11962;SDS011;62678;52.130;5.584;2022-11-23T11:39:19;12.27;;;2.72;;
11962;SDS011;62678;52.130;5.584;2022-11-23T11:41:50;13.00;;;2.53;;
11962;SDS011;62678;52.130;5.584;2022-11-23T11:44:20;12.15;;;2.30;;
11962;SDS011;62678;52.130;5.584;2022-11-23T11:46:52;8.82;;;1.92;;
11962;SDS011;62678;52.130;5.584;2022-11-23T11:49:24;10.32;;;2.05;;
11962;SDS011;62678;52.130;5.584;2022-11-23T11:51:55;11.43;;;2.15;;
11962;SDS011;62678;52.130;5.584;2022-11-23T11:54:30;8.93;;;1.95;;
11962;SDS011;62678;52.130;5.584;2022-11-23T11:57:03;14.48;;;2.22;;
11962;SDS011;62678;52.130;5.584;2022-11-23T11:59:36;11.50;;;1.95;;
11962;SDS011;62678;52.130;5.584;2022-11-23T12:02:13;10.48;;;2.30;;
11962;SDS011;62678;52.130;5.584;2022-11-23T12:04:45;10.65;;;2.13;;
11962;SDS011;62678;52.130;5.584;2022-11-23T12:07:21;16.00;;;2.90;;
11962;SDS011;62678;52.130;5.584;2022-11-23T12:09:55;9.93;;;2.13;;
11962;SDS011;62678;52.130;5.584;2022-11-23T12:12:32;10.98;;;2.22;;
11962;SDS011;62678;52.130;5.584;2022-11-23T12:15:01;12.85;;;2.30;;
11962;SDS011;62678;52.130;5.584;2022-11-23T12:17:39;8.93;;;2.40;;
11962;SDS011;62678;52.130;5.584;2022-11-23T12:20:23;10.13;;;1.80;;
11962;SDS011;62678;52.130;5.584;2022-11-23T12:23:02;10.85;;;2.00;;
11962;SDS011;62678;52.130;5.584;2022-11-23T12:25:40;6.28;;;1.30;;
11962;SDS011;62678;52.130;5.584;2022-11-23T12:28:19;11.20;;;2.15;;
11962;SDS011;62678;52.130;5.584;2022-11-23T12:30:57;7.18;;;2.17;;
11962;SDS011;62678;52.130;5.584;2022-11-23T12:33:46;11.40;;;2.50;;
11962;SDS011;62678;52.130;5.584;2022-11-23T12:39:30;10.20;;;1.83;;
11962;SDS011;62678;52.130;5.584;2022-11-23T12:42:33;10.50;;;1.88;;
11962;SDS011;62678;52.130;5.584;2022-11-23T12:45:12;8.30;;;2.13;;
11962;SDS011;62678;52.130;5.584;2022-11-23T12:47:45;11.65;;;2.10;;
11962;SDS011;62678;52.130;5.584;2022-11-23T12:50:19;11.18;;;2.35;;
11962;SDS011;62678;52.130;5.584;2022-11-23T12:52:58;12.90;;;2.33;;
11962;SDS011;62678;52.130;5.584;2022-11-23T12:55:35;12.93;;;2.55;;
11962;SDS011;62678;52.130;5.584;2022-11-23T12:58:14;11.82;;;2.13;;
11962;SDS011;62678;52.130;5.584;2022-11-23T13:00:47;10.98;;;1.85;;
11962;SDS011;62678;52.130;5.584;2022-11-23T13:06:23;11.70;;;1.98;;
11962;SDS011;62678;52.130;5.584;2022-11-23T13:09:21;7.15;;;1.98;;
11962;SDS011;62678;52.130;5.584;2022-11-23T13:12:15;6.38;;;1.67;;
11962;SDS011;62678;52.130;5.584;2022-11-23T13:14:59;6.38;;;1.90;;
11962;SDS011;62678;52.130;5.584;2022-11-23T13:17:36;7.10;;;1.95;;
11962;SDS011;62678;52.130;5.584;2022-11-23T13:23:15;11.00;;;1.70;;
11962;SDS011;62678;52.130;5.584;2022-11-23T13:28:39;10.82;;;1.98;;
11962;SDS011;62678;52.130;5.584;2022-11-23T13:31:24;9.18;;;2.15;;
11962;SDS011;62678;52.130;5.584;2022-11-23T13:33:53;5.53;;;1.48;;
11962;SDS011;62678;52.130;5.584;2022-11-23T13:36:34;10.50;;;1.90;;
11962;SDS011;62678;52.130;5.584;2022-11-23T13:40:02;5.55;;;1.30;;
11962;SDS011;62678;52.130;5.584;2022-11-23T13:42:23;10.52;;;1.92;;
11962;SDS011;62678;52.130;5.584;2022-11-23T13:48:03;7.35;;;1.70;;
11962;SDS011;62678;52.130;5.584;2022-11-23T13:50:31;5.32;;;1.40;;
11962;SDS011;62678;52.130;5.584;2022-11-23T13:52:59;4.70;;;1.55;;
11962;SDS011;62678;52.130;5.584;2022-11-23T13:55:28;7.53;;;1.98;;
11962;SDS011;62678;52.130;5.584;2022-11-23T14:01:03;10.05;;;1.92;;
11962;SDS011;62678;52.130;5.584;2022-11-23T14:03:48;6.10;;;1.30;;
11962;SDS011;62678;52.130;5.584;2022-11-23T14:06:19;8.15;;;1.52;;
11962;SDS011;62678;52.130;5.584;2022-11-23T14:08:50;7.15;;;1.67;;
11962;SDS011;62678;52.130;5.584;2022-11-23T14:11:20;6.03;;;1.92;;
11962;SDS011;62678;52.130;5.584;2022-11-23T14:13:50;9.23;;;1.73;;
11962;SDS011;62678;52.130;5.584;2022-11-23T14:16:25;8.75;;;1.75;;
11962;SDS011;62678;52.130;5.584;2022-11-23T14:19:14;9.88;;;2.15;;
11962;SDS011;62678;52.130;5.584;2022-11-23T14:21:48;11.18;;;1.75;;
11962;SDS011;62678;52.130;5.584;2022-11-23T14:24:31;9.05;;;2.25;;
11962;SDS011;62678;52.130;5.584;2022-11-23T14:27:29;11.75;;;1.92;;
11962;SDS011;62678;52.130;5.584;2022-11-23T14:30:19;7.30;;;1.90;;
11962;SDS011;62678;52.130;5.584;2022-11-23T14:32:55;5.47;;;2.00;;
11962;SDS011;62678;52.130;5.584;2022-11-23T14:35:37;11.05;;;2.13;;
11962;SDS011;62678;52.130;5.584;2022-11-23T14:41:32;10.18;;;2.30;;
11962;SDS011;62678;52.130;5.584;2022-11-23T14:44:01;10.30;;;3.00;;
11962;SDS011;62678;52.130;5.584;2022-11-23T14:46:28;10.95;;;2.72;;
11962;SDS011;62678;52.130;5.584;2022-11-23T14:49:01;9.15;;;2.30;;
11962;SDS011;62678;52.130;5.584;2022-11-23T14:51:32;9.15;;;2.10;;
11962;SDS011;62678;52.130;5.584;2022-11-23T14:54:00;10.23;;;2.28;;
11962;SDS011;62678;52.130;5.584;2022-11-23T14:56:34;10.60;;;2.40;;
11962;SDS011;62678;52.130;5.584;2022-11-23T14:59:04;11.80;;;2.60;;
11962;SDS011;62678;52.130;5.584;2022-11-23T15:01:33;8.50;;;2.38;;
11962;SDS011;62678;52.130;5.584;2022-11-23T15:04:05;12.10;;;2.53;;
11962;SDS011;62678;52.130;5.584;2022-11-23T15:06:35;11.85;;;2.70;;
11962;SDS011;62678;52.130;5.584;2022-11-23T15:09:07;8.70;;;2.17;;
11962;SDS011;62678;52.130;5.584;2022-11-23T15:11:42;10.90;;;2.80;;